ETEB 071756Z AUTO 30004KT 9999 CLR 18/06 A3008 RMK AO2 SLP193 T01810056 10205 20181 57009 $ ETIK 071756Z AUTO 01004KT 9999 BKN075 20/06 A3009 RMK AO2 SLP184 T01960060 10217 20193 57009 FZRANO EDDE 071750Z 26007KT CAVOK 18/06 Q1017 NOSIG EDDF 071750Z 22006KT 190V290 CAVOK 22/05 Q1017 NOSIG ETIC 071756Z AUTO 30006KT 9999 BKN070 18/06 A3006 RMK AO2 SLP178 T01830055 10205 20176 57008 $ EDQM 071320Z 26008KT 210V300 9999 SCT046 18/06 Q1020 ETIH 071756Z AUTO 00000KT 9999 BKN070 19/07 A3008 RMK AO2 SLP180 T01940065 10208 20178 57009 ETSI 071720Z AUTO 30004KT 6000 // ////// 21/06 Q1018 /// EDDP 071750Z 25010KT CAVOK 20/05 Q1016 NOSIG EDDM 071750Z 33005KT 280V360 CAVOK 20/06 Q1019 NOSIG ETSN 071720Z 28004KT 9999 FEW060 21/07 Q1019 BLU+ ETHN 071720Z 29005KT 9999 FEW060 20/05 Q1018 BLU+ EDDN 071750Z 30008KT CAVOK 19/06 Q1018 NOSIG EDDS 071750Z 01004KT 340V040 CAVOK 20/08 Q1018 NOSIG

METAR Messwerte

Klicken Sie auf einen Ort, um die 36h-Historie abzurufen

Ort
m ü. NN
Zeit Temperatur Taupunkt Rel.
Luftfeuchte
Luftdruck:
Altimeter
NN
Station
Wind in Beaufort
(Knoten)
Sichtweite
(Meter)
Wolken
(Meter über Grund)
Wettererscheinung
Ansbach
467
Di 07.07. 19:5618645 %1019
1018
964
WNW 2 (4)>= 10000  
Bad Windsheim / Illesheim
325
Di 07.07. 19:5620640 %1019
1018
980
N 2 (4)>= 10000Stark bewölkt (2300) 
Erfurt-Bindersleben
323
Di 07.07. 19:5018645 %1017
1017
979
W 3 (7)>= 10000Nicht signifikant 
Frankfurt
113
Di 07.07. 19:5022533 %1017
1017
1003
SW 2 (6)
S - WNW
>= 10000Nicht signifikant 
Grafenwöhr
415
Di 07.07. 19:5618645 %1018
1018
969
WNW 2 (6)>= 10000Stark bewölkt (2100) 
Hof
568
Di 07.07. 15:2018645 %1020
1019
953
W 3 (8)
SSW - WNW
>= 10000Wolkig (1400) 
Hohenfels
442
Di 07.07. 19:5619746 %1019
1018
967
Windstill>= 10000Stark bewölkt (2100) 
Ingolstadt
370
Di 07.07. 19:2021638 %1018
1017
974
WNW 2 (4)6000  
Leipzig-Schkeuditz
149
Di 07.07. 19:5020537 %1016
1016
998
WSW 3 (10)>= 10000Nicht signifikant 
München
447
Di 07.07. 19:5020640 %1019
1018
966
NNW 2 (5)
W - N
>= 10000Nicht signifikant 
Neuburg/Donau
387
Di 07.07. 19:2021740 %1019
1018
973
W 2 (4)>= 10000Leicht bewölkt (1800) 
Niederstetten
473
Di 07.07. 19:2020537 %1018
1017
962
WNW 2 (5)>= 10000Leicht bewölkt (1800) 
Nürnberg
312
Di 07.07. 19:5019643 %1018
1018
981
WNW 3 (8)>= 10000Nicht signifikant 
Stuttgart
419
Di 07.07. 19:5020846 %1018
1017
968
N 2 (4)
NNW - NO
>= 10000Nicht signifikant 

Altimeter: Einstellung am Altimeter (Höhenmesser), die Höhe 0 muss auf diesen Luftdruckwert zeigen, damit das Gerät die Stationshöhe richtig anzeigt.

NN: Luftdruck reduziert auf "Normal Null", auf Meereshöhe, dieser von der Temperatur abhängige Wert wird bisweilen unkorrekt einfach als "Luftdruck" bezeichnet. Eigentlich nur eine fiktive Größe, die es erlaubt, Stationen auf unterschiedlichen Höhen miteinander zu vergleichen.

Station: Realer Luftdruck an der Station.